Star, North Carolina
Current Conditions -  °F | °C
As of 3:35 PM on Monday 22 Dec 2014 (Local Time) from KHBI Reporting Station
Haze Haze  
Wind Chill: 32°   Ceiling: 400
Heat Index: 36°   Visibility: 1.7mi
Dew Point: 36°   Wind: 5mph
Humidity: 100%   Direction: 30°NNE
Pressure: 30.08"   Gusts: NA
Location:  35.4°N, 79.78°W
Report Text: KHBI 222035Z AUTO 03004KT 1 3/4SM BR OVC004 02/02 A3008 RMK AO2 T00220022
Loading
Personal Weather Stations






























Interactive Weather Map New forecast layout! Learn more

10-Day Weather Forecast

Advertisements
Track Severe Weather on mobile